Time;durP1;ratioP1;P1;durP2;ratioP2;P2;SDS_P1;SDS_P2;PMS_P1;PMS_P2;Temp;Humidity;BMP_temperature;BMP_pressure;BME280_temperature;BME280_humidity;BME280_pressure;Samples;Min_cycle;Max_cycle;Signal;HPM_P1;HPM_P2
2022/08/04 00:00:03;;;;;;;;;;;28.50;75.40;;;;;;5044453;28;20414;-68
2022/08/04 00:02:40;;;;;;;;;;;28.50;75.40;;;;;;5049794;28;19935;-66
2022/08/04 00:05:11;;;;;;;;;;;28.60;75.50;;;;;;5057024;28;19929;-66
2022/08/04 00:07:38;;;;;;;;;;;28.50;75.40;;;;;;5058034;28;19932;-66
2022/08/04 00:10:12;;;;;;;;;;;28.50;75.50;;;;;;5054574;28;19952;-66
2022/08/04 00:12:42;;;;;;;;;;;28.50;75.50;;;;;;5046404;28;19954;-65
2022/08/04 00:15:10;;;;;;;;;;;28.50;75.50;;;;;;5047809;28;19935;-65
2022/08/04 00:17:52;;;;;;;;;;;28.50;75.60;;;;;;5049807;28;20003;-66
2022/08/04 00:20:19;;;;;;;;;;;28.50;75.60;;;;;;5044957;28;20431;-66
2022/08/04 00:22:47;;;;;;;;;;;28.50;75.60;;;;;;5042908;28;19932;-65
2022/08/04 00:25:14;;;;;;;;;;;28.50;75.70;;;;;;5055033;28;19936;-66
2022/08/04 00:27:43;;;;;;;;;;;28.50;75.70;;;;;;5046888;28;19935;-65
2022/08/04 00:30:10;;;;;;;;;;;28.50;75.80;;;;;;5054500;28;19933;-65
2022/08/04 00:32:39;;;;;;;;;;;28.50;75.70;;;;;;5048988;28;19929;-65
2022/08/04 00:35:08;;;;;;;;;;;28.50;75.80;;;;;;5048759;28;19933;-65
2022/08/04 00:37:39;;;;;;;;;;;28.50;75.90;;;;;;5030855;28;19933;-67
2022/08/04 00:40:12;;;;;;;;;;;28.50;75.90;;;;;;5050204;28;19929;-66
2022/08/04 00:42:53;;;;;;;;;;;28.40;76.00;;;;;;5043211;28;20238;-65
2022/08/04 00:45:43;;;;;;;;;;;28.40;76.00;;;;;;5049222;28;19947;-66
2022/08/04 00:48:46;;;;;;;;;;;28.40;76.10;;;;;;5045225;28;19925;-65
2022/08/04 00:51:19;;;;;;;;;;;28.40;76.10;;;;;;5049704;28;19929;-66
2022/08/04 00:54:04;;;;;;;;;;;28.40;76.10;;;;;;5047585;28;20431;-66
2022/08/04 00:56:31;;;;;;;;;;;28.40;76.10;;;;;;5057785;28;19932;-64
2022/08/04 00:59:22;;;;;;;;;;;28.40;76.20;;;;;;5049996;28;19964;-65
2022/08/04 01:01:49;;;;;;;;;;;28.40;76.30;;;;;;5025799;28;20008;-65
2022/08/04 01:04:37;;;;;;;;;;;28.40;76.30;;;;;;5043653;28;19936;-64
2022/08/04 01:07:24;;;;;;;;;;;28.40;76.40;;;;;;5043711;28;19932;-64
2022/08/04 01:09:57;;;;;;;;;;;28.40;76.50;;;;;;5044088;28;19925;-63
2022/08/04 01:12:24;;;;;;;;;;;28.10;76.60;;;;;;5054331;28;19936;-62
2022/08/04 01:15:04;;;;;;;;;;;27.90;77.30;;;;;;5048820;28;19929;-62
2022/08/04 01:17:34;;;;;;;;;;;27.90;77.70;;;;;;5046946;28;19931;-63
2022/08/04 01:20:06;;;;;;;;;;;27.80;78.40;;;;;;5056664;28;19931;-61
2022/08/04 01:22:33;;;;;;;;;;;27.60;77.70;;;;;;5043295;28;19928;-61
2022/08/04 01:25:03;;;;;;;;;;;27.50;78.10;;;;;;5048546;28;19935;-63
2022/08/04 01:27:34;;;;;;;;;;;27.40;78.20;;;;;;5041016;28;20006;-64
2022/08/04 01:30:05;;;;;;;;;;;27.30;78.20;;;;;;5051927;28;19936;-62
2022/08/04 01:32:38;;;;;;;;;;;27.30;78.20;;;;;;5053200;28;19986;-62
2022/08/04 01:35:08;;;;;;;;;;;27.30;78.30;;;;;;5051121;28;19928;-64
2022/08/04 01:37:48;;;;;;;;;;;27.30;78.20;;;;;;5061653;28;20462;-64
2022/08/04 01:40:15;;;;;;;;;;;27.30;78.80;;;;;;5058613;28;19929;-64
2022/08/04 01:42:44;;;;;;;;;;;27.20;78.20;;;;;;5058151;28;19952;-64
2022/08/04 01:45:12;;;;;;;;;;;27.10;78.40;;;;;;5051054;28;19925;-62
2022/08/04 01:47:41;;;;;;;;;;;27.00;78.60;;;;;;5049476;28;19933;-63
2022/08/04 01:50:10;;;;;;;;;;;27.00;78.70;;;;;;5051986;28;19947;-64
2022/08/04 01:52:38;;;;;;;;;;;26.90;78.70;;;;;;5046706;28;19929;-62
2022/08/04 01:55:08;;;;;;;;;;;26.90;78.60;;;;;;5056890;28;19928;-63
2022/08/04 01:57:40;;;;;;;;;;;26.90;78.60;;;;;;5041801;28;19935;-63
2022/08/04 02:00:08;;;;;;;;;;;26.90;78.70;;;;;;5046982;28;20339;-65
2022/08/04 02:02:37;;;;;;;;;;;26.90;78.80;;;;;;5053427;28;19929;-62
2022/08/04 02:05:05;;;;;;;;;;;26.90;78.70;;;;;;5046301;28;19932;-64
2022/08/04 02:07:49;;;;;;;;;;;26.80;78.60;;;;;;5056721;28;19929;-62
2022/08/04 02:10:34;;;;;;;;;;;26.80;78.80;;;;;;5050613;28;19936;-63
2022/08/04 02:13:01;;;;;;;;;;;26.80;78.50;;;;;;5044309;28;19925;-62
2022/08/04 02:15:55;;;;;;;;;;;26.80;78.40;;;;;;5050013;28;19924;-62
2022/08/04 02:18:23;;;;;;;;;;;26.90;78.30;;;;;;5056635;28;19936;-63
2022/08/04 02:20:54;;;;;;;;;;;26.80;78.20;;;;;;5042629;28;19956;-63
2022/08/04 02:23:42;;;;;;;;;;;26.90;78.20;;;;;;5054206;28;19929;-65
2022/08/04 02:26:12;;;;;;;;;;;26.90;78.50;;;;;;5046660;28;19925;-64
2022/08/04 02:28:48;;;;;;;;;;;27.10;78.10;;;;;;5053523;28;19929;-65
2022/08/04 02:31:24;;;;;;;;;;;27.30;77.70;;;;;;5049746;28;20207;-66
2022/08/04 02:34:00;;;;;;;;;;;27.40;77.40;;;;;;5046854;28;19929;-65
2022/08/04 02:36:34;;;;;;;;;;;27.40;77.20;;;;;;5047757;28;20411;-64
2022/08/04 02:39:02;;;;;;;;;;;27.50;77.20;;;;;;5050260;28;20376;-65
2022/08/04 02:41:30;;;;;;;;;;;27.50;77.20;;;;;;5046866;28;19936;-65
2022/08/04 02:44:02;;;;;;;;;;;27.50;77.20;;;;;;5047884;28;19936;-65
2022/08/04 02:46:30;;;;;;;;;;;27.50;77.20;;;;;;5050161;28;19929;-65
2022/08/04 02:49:00;;;;;;;;;;;27.60;77.30;;;;;;5050710;28;20479;-65
2022/08/04 02:51:28;;;;;;;;;;;27.60;77.30;;;;;;5048379;28;19932;-64
2022/08/04 02:53:57;;;;;;;;;;;27.60;77.40;;;;;;5049859;28;19936;-64
2022/08/04 02:56:26;;;;;;;;;;;27.60;77.40;;;;;;5047870;28;20412;-65
2022/08/04 02:59:00;;;;;;;;;;;27.60;77.40;;;;;;5047392;28;19929;-65
2022/08/04 03:01:27;;;;;;;;;;;27.60;77.30;;;;;;5049173;28;19932;-64
2022/08/04 03:04:20;;;;;;;;;;;27.70;77.30;;;;;;5045823;28;19933;-65
2022/08/04 03:07:06;;;;;;;;;;;27.70;77.30;;;;;;5061304;28;19929;-66
2022/08/04 03:09:43;;;;;;;;;;;27.70;77.20;;;;;;5049379;28;19955;-65
2022/08/04 03:12:31;;;;;;;;;;;27.70;77.10;;;;;;5054617;28;19940;-66
2022/08/04 03:15:17;;;;;;;;;;;27.70;77.20;;;;;;5054646;28;19954;-65
2022/08/04 03:17:56;;;;;;;;;;;27.70;77.30;;;;;;5049814;28;19928;-64
2022/08/04 03:20:43;;;;;;;;;;;27.70;77.30;;;;;;5051037;28;19928;-65
2022/08/04 03:23:29;;;;;;;;;;;27.70;77.30;;;;;;5040874;28;19943;-65
2022/08/04 03:26:03;;;;;;;;;;;27.70;78.00;;;;;;5047661;28;20307;-65
2022/08/04 03:28:30;;;;;;;;;;;27.70;77.20;;;;;;5047572;28;19929;-64
2022/08/04 03:31:00;;;;;;;;;;;27.70;77.10;;;;;;5046406;28;20518;-65
2022/08/04 03:33:33;;;;;;;;;;;27.70;77.00;;;;;;5048321;28;19935;-66
2022/08/04 03:36:03;;;;;;;;;;;27.70;77.00;;;;;;5048699;28;19929;-65
2022/08/04 03:38:49;;;;;;;;;;;27.70;76.80;;;;;;5046116;28;19929;-66
2022/08/04 03:41:48;;;;;;;;;;;27.70;76.60;;;;;;5040535;28;20023;-64
2022/08/04 03:44:36;;;;;;;;;;;27.70;76.60;;;;;;5045975;28;19940;-66
2022/08/04 03:47:06;;;;;;;;;;;27.70;76.60;;;;;;5047065;28;19928;-65
2022/08/04 03:49:51;;;;;;;;;;;27.70;76.50;;;;;;5044775;28;19932;-65
2022/08/04 03:55:45;;;;;;;;;;;27.70;76.50;;;;;;5047777;28;19944;-64
2022/08/04 03:58:21;;;;;;;;;;;27.70;76.40;;;;;;5046735;28;20403;-65
2022/08/04 04:01:06;;;;;;;;;;;27.70;76.40;;;;;;5042819;28;19928;-64
2022/08/04 04:03:52;;;;;;;;;;;27.70;76.40;;;;;;5055558;28;19936;-64
2022/08/04 04:06:33;;;;;;;;;;;27.70;76.40;;;;;;5049603;28;19929;-65
2022/08/04 04:09:01;;;;;;;;;;;27.70;76.40;;;;;;5046666;28;19929;-65
2022/08/04 04:11:31;;;;;;;;;;;27.70;76.40;;;;;;5047700;28;20233;-65
2022/08/04 04:14:04;;;;;;;;;;;27.60;76.40;;;;;;5059541;28;19936;-67
2022/08/04 04:16:35;;;;;;;;;;;27.70;76.40;;;;;;5045537;28;19968;-65
2022/08/04 04:19:14;;;;;;;;;;;27.60;76.30;;;;;;5046269;28;19932;-65
2022/08/04 04:21:44;;;;;;;;;;;27.60;76.30;;;;;;5043296;28;19933;-65
2022/08/04 04:24:32;;;;;;;;;;;27.60;76.30;;;;;;5046911;28;20408;-65
2022/08/04 04:27:07;;;;;;;;;;;27.60;76.30;;;;;;5045571;28;19948;-65
2022/08/04 04:29:53;;;;;;;;;;;27.70;76.40;;;;;;5044944;28;19932;-65
2022/08/04 04:32:22;;;;;;;;;;;27.60;76.20;;;;;;5046516;28;20431;-63
2022/08/04 04:35:08;;;;;;;;;;;27.60;76.20;;;;;;5046812;28;19925;-65
2022/08/04 04:37:38;;;;;;;;;;;27.60;76.20;;;;;;5046578;28;19928;-65
2022/08/04 04:40:27;;;;;;;;;;;27.60;76.20;;;;;;5044353;28;19956;-64
2022/08/04 04:43:03;;;;;;;;;;;27.60;76.10;;;;;;5050562;28;19928;-65
2022/08/04 04:45:35;;;;;;;;;;;27.60;76.20;;;;;;5052130;28;19933;-64
2022/08/04 04:48:02;;;;;;;;;;;27.60;76.20;;;;;;5059305;28;19955;-66
2022/08/04 04:50:55;;;;;;;;;;;27.60;76.20;;;;;;5047247;28;20442;-65
2022/08/04 04:53:26;;;;;;;;;;;27.60;76.20;;;;;;5044620;28;20343;-65
2022/08/04 04:55:58;;;;;;;;;;;27.60;76.30;;;;;;5042618;28;19929;-67
2022/08/04 04:58:26;;;;;;;;;;;27.60;76.40;;;;;;5042707;28;19929;-66
2022/08/04 05:01:02;;;;;;;;;;;27.60;76.50;;;;;;5052337;28;19932;-65
2022/08/04 05:03:40;;;;;;;;;;;27.60;76.50;;;;;;5042390;28;19928;-64
2022/08/04 05:06:25;;;;;;;;;;;27.40;76.60;;;;;;5039251;28;20392;-61
2022/08/04 05:09:02;;;;;;;;;;;27.30;76.90;;;;;;5044087;28;19936;-63
2022/08/04 05:11:52;;;;;;;;;;;27.20;77.10;;;;;;5057486;28;20384;-62
2022/08/04 05:14:27;;;;;;;;;;;27.10;77.40;;;;;;5051226;28;19936;-64
2022/08/04 05:17:12;;;;;;;;;;;27.10;77.80;;;;;;5047025;28;19924;-63
2022/08/04 05:19:51;;;;;;;;;;;27.00;78.00;;;;;;5041570;28;19936;-61
2022/08/04 05:22:24;;;;;;;;;;;27.10;78.50;;;;;;5044232;28;19933;-61
2022/08/04 05:24:57;;;;;;;;;;;27.10;78.60;;;;;;5044646;28;19940;-61
2022/08/04 05:27:27;;;;;;;;;;;27.10;78.50;;;;;;5044911;28;19924;-60
2022/08/04 05:29:58;;;;;;;;;;;27.10;78.60;;;;;;5050591;28;19936;-65
2022/08/04 05:32:28;;;;;;;;;;;27.00;79.00;;;;;;5044051;28;20423;-60
2022/08/04 05:34:57;;;;;;;;;;;27.00;79.30;;;;;;5040483;28;19928;-62
2022/08/04 05:37:25;;;;;;;;;;;26.90;79.50;;;;;;5041672;28;19928;-62
2022/08/04 05:39:57;;;;;;;;;;;26.70;79.70;;;;;;5048873;28;19928;-61
2022/08/04 05:42:25;;;;;;;;;;;26.50;80.20;;;;;;5043398;28;19936;-61
2022/08/04 05:44:53;;;;;;;;;;;26.50;80.40;;;;;;5042134;28;19929;-61
2022/08/04 05:47:20;;;;;;;;;;;26.40;80.50;;;;;;5042356;28;20400;-62
2022/08/04 05:49:49;;;;;;;;;;;26.50;80.70;;;;;;5043911;28;20439;-61
2022/08/04 05:52:30;;;;;;;;;;;26.50;80.40;;;;;;5042137;28;20226;-61
2022/08/04 05:54:58;;;;;;;;;;;26.50;80.50;;;;;;5042234;28;19936;-60
2022/08/04 05:57:25;;;;;;;;;;;26.50;80.50;;;;;;5043427;28;19929;-62
2022/08/04 05:59:54;;;;;;;;;;;26.50;80.40;;;;;;5043438;28;19929;-62
2022/08/04 06:02:22;;;;;;;;;;;26.50;80.50;;;;;;5053455;28;20436;-62
2022/08/04 06:04:50;;;;;;;;;;;26.50;80.60;;;;;;5042907;28;20427;-62
2022/08/04 06:07:17;;;;;;;;;;;26.50;80.70;;;;;;5046416;28;19935;-62
2022/08/04 06:09:45;;;;;;;;;;;26.50;80.60;;;;;;5052645;28;19950;-62
2022/08/04 06:12:25;;;;;;;;;;;26.50;80.50;;;;;;5055195;28;19932;-62
2022/08/04 06:14:53;;;;;;;;;;;26.50;80.60;;;;;;5050263;28;19933;-63
2022/08/04 06:17:34;;;;;;;;;;;26.70;80.60;;;;;;5044175;28;21305;-63
2022/08/04 06:20:25;;;;;;;;;;;26.80;80.30;;;;;;5046487;28;19933;-64
2022/08/04 06:23:00;;;;;;;;;;;26.90;79.90;;;;;;5047950;28;20415;-63
2022/08/04 06:25:30;;;;;;;;;;;27.00;79.90;;;;;;5042159;28;19971;-62
2022/08/04 06:27:57;;;;;;;;;;;27.10;79.80;;;;;;5041733;28;19925;-62
2022/08/04 06:30:29;;;;;;;;;;;27.20;79.70;;;;;;5037279;28;19935;-62
2022/08/04 06:32:56;;;;;;;;;;;27.20;79.40;;;;;;5040632;28;19929;-63
2022/08/04 06:35:31;;;;;;;;;;;27.30;79.30;;;;;;5034993;28;19929;-62
2022/08/04 06:37:59;;;;;;;;;;;27.30;79.30;;;;;;5042234;28;19928;-62
2022/08/04 06:40:28;;;;;;;;;;;27.30;79.30;;;;;;5044640;28;19940;-63
2022/08/04 06:43:01;;;;;;;;;;;27.30;79.30;;;;;;5055584;28;19925;-62
2022/08/04 06:45:29;;;;;;;;;;;27.40;79.40;;;;;;5044755;28;19954;-60
2022/08/04 06:47:57;;;;;;;;;;;27.40;79.40;;;;;;5049154;28;20424;-63
2022/08/04 06:50:24;;;;;;;;;;;27.40;79.30;;;;;;5051358;28;20391;-63
2022/08/04 06:53:11;;;;;;;;;;;27.40;79.30;;;;;;5043609;28;19956;-63
2022/08/04 06:55:43;;;;;;;;;;;27.40;79.30;;;;;;5046423;28;19925;-62
2022/08/04 06:58:11;;;;;;;;;;;27.40;79.30;;;;;;5052293;28;20320;-62
2022/08/04 07:00:39;;;;;;;;;;;27.50;79.40;;;;;;5048226;28;19929;-62
2022/08/04 07:03:07;;;;;;;;;;;27.40;79.30;;;;;;5054754;28;20349;-62
2022/08/04 07:05:34;;;;;;;;;;;27.50;79.40;;;;;;5041176;28;19929;-63
2022/08/04 07:08:02;;;;;;;;;;;27.50;79.40;;;;;;5051196;28;19928;-63
2022/08/04 07:10:29;;;;;;;;;;;27.40;79.30;;;;;;5051760;28;19929;-62
2022/08/04 07:12:57;;;;;;;;;;;27.50;79.40;;;;;;5048899;28;19929;-64
2022/08/04 07:15:25;;;;;;;;;;;27.50;79.40;;;;;;5047037;28;19929;-61
2022/08/04 07:17:53;;;;;;;;;;;27.50;79.40;;;;;;5043715;28;19936;-64
2022/08/04 07:20:20;;;;;;;;;;;27.50;79.40;;;;;;5048413;28;19929;-62
2022/08/04 07:23:05;;;;;;;;;;;27.50;79.40;;;;;;5054995;28;19928;-62
2022/08/04 07:25:33;;;;;;;;;;;27.50;79.40;;;;;;5042624;28;20415;-63
2022/08/04 07:28:23;;;;;;;;;;;27.60;80.10;;;;;;5047566;28;19955;-62
2022/08/04 07:30:51;;;;;;;;;;;27.50;79.40;;;;;;5055983;28;19948;-62
2022/08/04 07:33:19;;;;;;;;;;;27.60;79.50;;;;;;5049897;28;19929;-63
2022/08/04 07:35:47;;;;;;;;;;;27.60;79.50;;;;;;5052110;28;20284;-63
2022/08/04 07:38:34;;;;;;;;;;;27.60;79.50;;;;;;5039544;28;19936;-63
2022/08/04 07:41:18;;;;;;;;;;;27.70;79.60;;;;;;5055451;28;20288;-63
2022/08/04 07:44:02;;;;;;;;;;;27.60;79.60;;;;;;5050433;28;19933;-63
2022/08/04 07:46:29;;;;;;;;;;;27.70;79.60;;;;;;5049029;28;19936;-64
2022/08/04 07:49:01;;;;;;;;;;;27.60;79.50;;;;;;5051180;28;19936;-62
2022/08/04 07:51:29;;;;;;;;;;;27.70;79.70;;;;;;5048214;28;19956;-63
2022/08/04 07:53:57;;;;;;;;;;;27.70;79.70;;;;;;5045601;28;20359;-63
2022/08/04 07:56:27;;;;;;;;;;;27.70;79.60;;;;;;5047201;28;19973;-62
2022/08/04 07:58:55;;;;;;;;;;;27.70;79.60;;;;;;5048162;28;19935;-59
2022/08/04 08:01:23;;;;;;;;;;;27.70;79.60;;;;;;5052967;28;20075;-63
2022/08/04 08:03:51;;;;;;;;;;;27.70;79.70;;;;;;5052684;28;20316;-63
2022/08/04 08:06:19;;;;;;;;;;;27.70;79.70;;;;;;5047721;28;19932;-63
2022/08/04 08:08:59;;;;;;;;;;;27.70;79.70;;;;;;5044812;28;19952;-63
2022/08/04 08:11:39;;;;;;;;;;;27.70;79.70;;;;;;5045784;28;19928;-63
2022/08/04 08:14:27;;;;;;;;;;;27.80;79.80;;;;;;5050601;28;19929;-63
2022/08/04 08:16:54;;;;;;;;;;;27.80;79.80;;;;;;5053290;28;19943;-62
2022/08/04 08:19:21;;;;;;;;;;;27.80;79.80;;;;;;5050231;28;19925;-62
2022/08/04 08:21:48;;;;;;;;;;;27.80;79.80;;;;;;5037052;28;19929;-63
2022/08/04 08:24:27;;;;;;;;;;;27.80;79.80;;;;;;5049836;28;19928;-63
2022/08/04 08:26:55;;;;;;;;;;;27.80;79.80;;;;;;5043473;28;19936;-62
2022/08/04 08:29:24;;;;;;;;;;;27.80;79.80;;;;;;5055242;28;19948;-61
2022/08/04 08:31:51;;;;;;;;;;;27.80;79.80;;;;;;5049931;28;19925;-63
2022/08/04 08:34:29;;;;;;;;;;;27.90;79.90;;;;;;5042603;28;19936;-64
2022/08/04 08:37:12;;;;;;;;;;;27.80;79.80;;;;;;5048539;28;19935;-63
2022/08/04 08:39:57;;;;;;;;;;;27.90;79.90;;;;;;5053076;28;20318;-63
2022/08/04 08:42:27;;;;;;;;;;;27.90;79.90;;;;;;5042201;28;20404;-60
2022/08/04 08:45:04;;;;;;;;;;;27.90;79.90;;;;;;5036807;28;19936;-60
2022/08/04 08:47:31;;;;;;;;;;;27.90;79.90;;;;;;5057174;28;19928;-63
2022/08/04 08:50:28;;;;;;;;;;;27.90;79.90;;;;;;5050508;28;19929;-63
2022/08/04 08:53:11;;;;;;;;;;;27.90;79.90;;;;;;5050314;28;19935;-63
2022/08/04 08:56:07;;;;;;;;;;;27.90;80.00;;;;;;5043545;28;20280;-63
2022/08/04 08:58:40;;;;;;;;;;;28.00;80.00;;;;;;5039994;28;20438;-64
2022/08/04 09:01:27;;;;;;;;;;;27.90;79.90;;;;;;5054126;28;19929;-62
2022/08/04 09:04:07;;;;;;;;;;;27.90;80.00;;;;;;5053794;28;19928;-63
2022/08/04 09:06:46;;;;;;;;;;;28.00;80.00;;;;;;5041473;28;19928;-62
2022/08/04 09:09:29;;;;;;;;;;;28.00;80.00;;;;;;5055976;28;19932;-63
2022/08/04 09:12:12;;;;;;;;;;;28.00;80.10;;;;;;5053705;28;20296;-63
2022/08/04 09:14:45;;;;;;;;;;;28.00;80.10;;;;;;5043924;28;20303;-64
2022/08/04 09:17:19;;;;;;;;;;;28.00;80.10;;;;;;5054633;28;19935;-63
2022/08/04 09:20:05;;;;;;;;;;;28.00;80.10;;;;;;5052723;28;19925;-62
2022/08/04 09:22:39;;;;;;;;;;;28.00;80.10;;;;;;5047287;28;19929;-63
2022/08/04 09:25:17;;;;;;;;;;;28.00;80.10;;;;;;5057129;28;20388;-62
2022/08/04 09:27:44;;;;;;;;;;;28.00;80.10;;;;;;5062313;28;19933;-63
2022/08/04 09:30:12;;;;;;;;;;;28.00;80.10;;;;;;5059418;28;19928;-65
2022/08/04 09:32:43;;;;;;;;;;;28.00;80.10;;;;;;5042412;28;19928;-64
2022/08/04 09:35:23;;;;;;;;;;;28.00;80.10;;;;;;5042106;28;19936;-63
2022/08/04 09:37:53;;;;;;;;;;;28.00;80.10;;;;;;5055329;28;19928;-62
2022/08/04 09:40:23;;;;;;;;;;;28.10;80.20;;;;;;5044844;28;20456;-63
2022/08/04 09:43:06;;;;;;;;;;;28.00;80.10;;;;;;5049501;28;19932;-63
2022/08/04 09:45:39;;;;;;;;;;;28.10;80.20;;;;;;5041605;28;19925;-63
2022/08/04 09:48:13;;;;;;;;;;;28.10;80.20;;;;;;5054784;28;19929;-62
2022/08/04 09:50:44;;;;;;;;;;;28.10;80.20;;;;;;5044945;28;19935;-62
2022/08/04 09:53:35;;;;;;;;;;;28.10;80.20;;;;;;5065157;28;19928;-63
2022/08/04 09:56:05;;;;;;;;;;;28.10;80.30;;;;;;5049407;28;20312;-62
2022/08/04 09:58:51;;;;;;;;;;;28.10;80.30;;;;;;5055538;28;19935;-64
2022/08/04 10:01:19;;;;;;;;;;;28.10;80.20;;;;;;5051677;28;19944;-64
2022/08/04 10:03:59;;;;;;;;;;;28.10;80.30;;;;;;5047764;28;20400;-62
2022/08/04 10:06:30;;;;;;;;;;;28.10;80.20;;;;;;5049886;28;19940;-63
2022/08/04 10:09:16;;;;;;;;;;;28.10;80.30;;;;;;5045758;28;19929;-63
2022/08/04 10:11:43;;;;;;;;;;;28.10;80.30;;;;;;5048653;28;19930;-63
2022/08/04 10:14:31;;;;;;;;;;;28.10;80.30;;;;;;5054615;28;19968;-63
2022/08/04 10:17:17;;;;;;;;;;;28.10;80.30;;;;;;5045638;28;19929;-63
2022/08/04 10:19:47;;;;;;;;;;;28.10;80.30;;;;;;5038748;28;19936;-63
2022/08/04 10:22:19;;;;;;;;;;;28.10;80.30;;;;;;5052811;28;19936;-62
2022/08/04 10:24:58;;;;;;;;;;;28.10;80.30;;;;;;5045124;28;20336;-62
2022/08/04 10:27:42;;;;;;;;;;;28.10;80.30;;;;;;5043785;28;19929;-63
2022/08/04 10:30:12;;;;;;;;;;;28.10;80.30;;;;;;5054138;28;20000;-63
2022/08/04 10:32:55;;;;;;;;;;;28.10;80.30;;;;;;5042757;28;19939;-63
2022/08/04 10:35:23;;;;;;;;;;;28.20;80.40;;;;;;5052144;28;19933;-63
2022/08/04 10:38:07;;;;;;;;;;;28.10;80.40;;;;;;5055467;28;19936;-61
2022/08/04 10:40:43;;;;;;;;;;;28.20;80.40;;;;;;5040369;28;19940;-63
2022/08/04 10:43:29;;;;;;;;;;;28.20;80.40;;;;;;5049340;28;19936;-62
2022/08/04 10:45:56;;;;;;;;;;;28.20;80.40;;;;;;5052503;28;19929;-63
2022/08/04 10:48:24;;;;;;;;;;;28.20;80.50;;;;;;5059039;28;19952;-62
2022/08/04 10:51:04;;;;;;;;;;;28.20;80.50;;;;;;5041988;28;19936;-62
2022/08/04 10:53:33;;;;;;;;;;;28.20;80.50;;;;;;5055195;28;19925;-61
2022/08/04 10:56:08;;;;;;;;;;;28.20;80.50;;;;;;5044994;28;19929;-63
2022/08/04 10:58:39;;;;;;;;;;;28.20;80.50;;;;;;5049231;28;19928;-63
2022/08/04 11:01:34;;;;;;;;;;;28.20;80.50;;;;;;5049331;28;19940;-60
2022/08/04 11:04:39;;;;;;;;;;;28.20;80.50;;;;;;5042274;28;20170;-63
2022/08/04 11:07:07;;;;;;;;;;;28.20;80.60;;;;;;5048197;28;19936;-63
2022/08/04 11:09:34;;;;;;;;;;;28.20;80.50;;;;;;5031396;28;20401;-64
2022/08/04 11:12:04;;;;;;;;;;;28.20;80.50;;;;;;5055644;28;19932;-64
2022/08/04 11:14:45;;;;;;;;;;;28.20;80.60;;;;;;5047395;28;20438;-63
2022/08/04 11:17:21;;;;;;;;;;;28.20;80.60;;;;;;5046744;28;21488;-63
2022/08/04 11:19:58;;;;;;;;;;;28.20;80.60;;;;;;5040989;28;19928;-65
2022/08/04 11:22:49;;;;;;;;;;;28.20;80.50;;;;;;5049981;28;19996;-62
2022/08/04 11:25:21;;;;;;;;;;;28.20;80.50;;;;;;5054824;28;20066;-63
2022/08/04 11:28:08;;;;;;;;;;;28.20;81.10;;;;;;5044525;28;19929;-63
2022/08/04 11:30:55;;;;;;;;;;;28.20;80.50;;;;;;5052998;28;19929;-61
2022/08/04 11:33:29;;;;;;;;;;;28.20;80.50;;;;;;5047732;28;20328;-62
2022/08/04 11:36:03;;;;;;;;;;;28.30;80.60;;;;;;5056134;28;19928;-63
2022/08/04 11:38:35;;;;;;;;;;;28.30;80.60;;;;;;5044294;28;20331;-63
2022/08/04 11:41:16;;;;;;;;;;;28.30;80.60;;;;;;5047224;28;20308;-63
2022/08/04 11:43:54;;;;;;;;;;;28.30;80.60;;;;;;5045260;28;19928;-63
2022/08/04 11:46:39;;;;;;;;;;;28.30;80.60;;;;;;5052548;28;20378;-63
2022/08/04 11:49:10;;;;;;;;;;;28.20;80.50;;;;;;5039677;28;19929;-61
2022/08/04 11:51:38;;;;;;;;;;;28.30;80.60;;;;;;5042164;28;20388;-64
2022/08/04 11:54:06;;;;;;;;;;;28.30;80.60;;;;;;5041433;28;19936;-64
2022/08/04 11:56:33;;;;;;;;;;;28.30;80.60;;;;;;5057803;28;19936;-64
2022/08/04 11:59:06;;;;;;;;;;;28.30;80.60;;;;;;5047363;28;19933;-64
2022/08/04 12:01:37;;;;;;;;;;;28.30;80.50;;;;;;5056222;28;19932;-63
2022/08/04 12:04:13;;;;;;;;;;;28.30;80.50;;;;;;5053327;28;19959;-63
2022/08/04 12:06:47;;;;;;;;;;;28.30;80.50;;;;;;5045100;28;19936;-63
2022/08/04 12:10:06;;;;;;;;;;;28.30;80.50;;;;;;5052828;28;20400;-63
2022/08/04 12:12:33;;;;;;;;;;;28.30;80.50;;;;;;5017641;28;19929;-63
2022/08/04 12:15:15;;;;;;;;;;;28.30;80.50;;;;;;5035368;28;19940;-64
2022/08/04 12:17:53;;;;;;;;;;;28.30;80.50;;;;;;5052518;28;20446;-64
2022/08/04 12:20:22;;;;;;;;;;;28.40;80.50;;;;;;5046059;28;19928;-63
2022/08/04 12:23:06;;;;;;;;;;;28.40;80.50;;;;;;5043742;28;19933;-64
2022/08/04 12:25:39;;;;;;;;;;;28.40;80.50;;;;;;5039422;28;19929;-64
2022/08/04 12:28:14;;;;;;;;;;;28.40;80.50;;;;;;5049617;28;19936;-64
2022/08/04 12:30:44;;;;;;;;;;;28.40;80.60;;;;;;5055691;28;19936;-63
2022/08/04 12:33:38;;;;;;;;;;;28.40;80.60;;;;;;5049808;28;19933;-61
2022/08/04 12:36:35;;;;;;;;;;;28.40;80.60;;;;;;5054779;28;19925;-62
2022/08/04 12:39:07;;;;;;;;;;;28.40;80.50;;;;;;5050331;28;19933;-63
2022/08/04 12:41:39;;;;;;;;;;;28.40;80.50;;;;;;5048423;28;19948;-64
2022/08/04 12:44:12;;;;;;;;;;;28.40;80.50;;;;;;5052754;28;19924;-63
2022/08/04 12:47:01;;;;;;;;;;;28.40;80.50;;;;;;5055648;28;19928;-66
2022/08/04 12:49:49;;;;;;;;;;;28.40;80.50;;;;;;5042325;28;20399;-62
2022/08/04 12:52:40;;;;;;;;;;;28.40;80.50;;;;;;5050383;28;19939;-63
2022/08/04 12:55:28;;;;;;;;;;;28.40;80.50;;;;;;5055429;28;19947;-60
2022/08/04 12:57:57;;;;;;;;;;;28.40;80.50;;;;;;5048961;28;19929;-63
2022/08/04 13:00:25;;;;;;;;;;;28.40;80.50;;;;;;5052570;28;19944;-63
2022/08/04 13:03:02;;;;;;;;;;;28.40;80.50;;;;;;5055508;28;19928;-63
2022/08/04 13:05:30;;;;;;;;;;;28.40;80.60;;;;;;5045753;28;19951;-62
2022/08/04 13:07:59;;;;;;;;;;;28.40;80.60;;;;;;5047301;28;19928;-62
2022/08/04 13:10:27;;;;;;;;;;;28.40;80.50;;;;;;5053694;28;19937;-63
2022/08/04 13:12:57;;;;;;;;;;;28.40;80.50;;;;;;5054546;28;19936;-63
2022/08/04 13:15:25;;;;;;;;;;;28.50;80.60;;;;;;5042874;28;20367;-63
2022/08/04 13:17:58;;;;;;;;;;;28.50;80.60;;;;;;5051433;28;19928;-63
2022/08/04 13:20:30;;;;;;;;;;;28.50;80.60;;;;;;5045292;28;20419;-61
2022/08/04 13:23:04;;;;;;;;;;;28.50;80.60;;;;;;5047993;28;19959;-63
2022/08/04 13:25:42;;;;;;;;;;;28.50;80.60;;;;;;5039703;28;19936;-64
2022/08/04 13:28:30;;;;;;;;;;;28.50;80.50;;;;;;5049822;28;19936;-63
2022/08/04 13:31:01;;;;;;;;;;;28.60;80.50;;;;;;5041164;28;19928;-62
2022/08/04 13:33:30;;;;;;;;;;;28.60;80.50;;;;;;5051780;28;19933;-63
2022/08/04 13:35:58;;;;;;;;;;;28.60;80.50;;;;;;5037705;28;19963;-63
2022/08/04 13:38:26;;;;;;;;;;;28.60;80.60;;;;;;5045059;28;19925;-64
2022/08/04 13:40:58;;;;;;;;;;;28.50;80.50;;;;;;5043637;28;20233;-63
2022/08/04 13:43:27;;;;;;;;;;;28.60;80.70;;;;;;5053373;28;19929;-60
2022/08/04 13:46:18;;;;;;;;;;;28.60;80.70;;;;;;5048131;28;19932;-63
2022/08/04 13:48:56;;;;;;;;;;;28.60;80.70;;;;;;5052033;28;20522;-63
2022/08/04 13:52:03;;;;;;;;;;;28.60;81.20;;;;;;5044248;28;20518;-61
2022/08/04 13:54:42;;;;;;;;;;;28.50;80.60;;;;;;5049546;28;19933;-63
2022/08/04 13:57:22;;;;;;;;;;;28.60;80.70;;;;;;5053741;28;19928;-63
2022/08/04 13:59:52;;;;;;;;;;;28.60;80.70;;;;;;5034631;28;19925;-63
2022/08/04 14:02:28;;;;;;;;;;;28.50;80.60;;;;;;5045993;28;19940;-64
2022/08/04 14:04:56;;;;;;;;;;;28.60;80.70;;;;;;5055073;28;19933;-64
2022/08/04 14:07:24;;;;;;;;;;;28.50;80.70;;;;;;5046166;28;20296;-64
2022/08/04 14:09:52;;;;;;;;;;;28.50;80.60;;;;;;5057123;28;19959;-64
2022/08/04 14:12:30;;;;;;;;;;;28.60;80.70;;;;;;5040201;28;19939;-65
2022/08/04 14:15:31;;;;;;;;;;;28.60;80.70;;;;;;5046038;28;19929;-64
2022/08/04 14:18:20;;;;;;;;;;;28.60;80.70;;;;;;5051616;28;20031;-64
2022/08/04 14:21:00;;;;;;;;;;;28.60;80.70;;;;;;5052730;28;20228;-64
2022/08/04 14:23:28;;;;;;;;;;;28.60;80.70;;;;;;5052713;28;19940;-64
2022/08/04 14:25:59;;;;;;;;;;;28.60;80.60;;;;;;5051861;28;19944;-64
2022/08/04 14:28:27;;;;;;;;;;;28.60;80.70;;;;;;5068397;28;19936;-64
2022/08/04 14:31:16;;;;;;;;;;;28.60;80.70;;;;;;5047079;28;19928;-64
2022/08/04 14:33:44;;;;;;;;;;;28.60;80.70;;;;;;5051308;28;20307;-63
2022/08/04 14:36:40;;;;;;;;;;;28.60;80.60;;;;;;5045212;28;19936;-64
2022/08/04 14:39:37;;;;;;;;;;;28.70;80.70;;;;;;5052790;28;20034;-64
2022/08/04 14:42:05;;;;;;;;;;;28.70;80.60;;;;;;5056053;28;20286;-65
2022/08/04 14:44:52;;;;;;;;;;;28.70;80.60;;;;;;5054204;28;19936;-63
2022/08/04 14:47:39;;;;;;;;;;;28.70;80.50;;;;;;5054435;28;19940;-63
2022/08/04 14:50:07;;;;;;;;;;;28.90;80.40;;;;;;5044646;28;20332;-62
2022/08/04 14:52:36;;;;;;;;;;;29.00;80.30;;;;;;5046949;28;20188;-63
2022/08/04 14:55:23;;;;;;;;;;;29.00;80.20;;;;;;5040972;28;19929;-63
2022/08/04 14:57:50;;;;;;;;;;;29.10;80.10;;;;;;5052070;28;19936;-63
2022/08/04 15:00:38;;;;;;;;;;;29.10;80.00;;;;;;5050420;28;19929;-62
2022/08/04 15:03:08;;;;;;;;;;;29.20;80.00;;;;;;5056421;28;19932;-63
2022/08/04 15:05:37;;;;;;;;;;;29.20;80.10;;;;;;5055165;28;19939;-63